Wappingers Falls, NY (12590)

11:00 AM EDT on April 28, 2015 (GMT -0400)
Vitek Backyard | | Change Station
CLOSE
Current Station
Personal Weather Station
Location: Hopewell Junction, NY
Elevation: 266 ft
Nearby Weather Stations

Elev 266 ft 41.59 °N, 73.83 °W | Updated 15 minutes ago

Clear
Clear
60.3 °F
Feels Like 60.3 °F
N
3.7
Wind Variable Wind from NNE

Today
High -- | Low -- °F
--% Chance of Precip.
Yesterday
High -- | Low -- °F
Precip. -- in
5:56 AM 7:49 PM
Waxing Gibbous, 74% visible
Pressure 29.80 in
Visibility 10.0 miles
Clouds Clear
Dew Point 36 °F
Humidity 40%
Rainfall 0.02 in
Snow Depth Not available.
UV 8 out of 12
Pollen 9.70 out of 12
Air Quality Not available.
Flu Activity Widespread
METAR KPOU 281453Z 02014G20KT 10SM CLR 14/03 A2981 RMK AO2 SLP090 T01440028 50000

More Conditions Fewer Conditions

Pressure 29.80 in
Visibility 10.0 miles
Clouds Clear
Dew Point 36 °F
Humidity 40%
Rainfall 0.02 in
Snow Depth Not available.
UV 8 out of 12
Pollen 9.70 out of 12
Air Quality Not available.
Flu Activity Widespread
METAR KPOU 281453Z 02014G20KT 10SM CLR 14/03 A2981 RMK AO2 SLP090 T01440028 50000

More Conditions Fewer Conditions

10-Day Weather Forecast

Almanac

Astronomy

Apr. 28, 2015 Rise Set
Actual Time
Civil Twilight
Nautical Twilight
Astronomical Twilight
Moon
Length of Visible Light
Length of Day
Tomorrow will be .
, % of the Moon is Illuminated

Today's Extremes

State Highs State Lows

Community

WunderPhotos

Upload Photos

1,817,661 photos uploaded!

WunderBlogs® & News

Nearby

Air Quality

  Air Quality AQ Index Pollutant
Not available.

Snow Depth

Station Depth Elevation

Earthquake Activity

City Distance Mag. Time & Date
Minimum magnitude displayed is 2.5.

Coastal Water Temperatures

Place Temperature

Stations

Nearby Weather Stations

Station Location Temp. Windchill Dew Point Humidity Wind Precip. Elev Updated Type